Time;durP1;ratioP1;P1;durP2;ratioP2;P2;SDS_P1;SDS_P2;PMS_P1;PMS_P2;Temp;Humidity;BMP_temperature;BMP_pressure;BME280_temperature;BME280_humidity;BME280_pressure;Samples;Min_cycle;Max_cycle;Signal;HPM_P1;HPM_P2
2023/09/26 00:00:31;;;;;;;4.35;2.65;;;14.00;99.90;;;;;;2078561;28;20048;-74
2023/09/26 00:01:32;;;;;;;3.47;2.53;;;13.90;99.90;;;;;;2076415;28;20029;-74
2023/09/26 00:02:35;;;;;;;3.53;2.70;;;14.00;99.90;;;;;;2068738;28;20037;-74
2023/09/26 00:03:36;;;;;;;3.60;2.70;;;14.00;99.90;;;;;;2070112;28;20026;-74
2023/09/26 00:04:37;;;;;;;4.93;2.65;;;14.00;99.90;;;;;;2077199;28;20040;-74
2023/09/26 00:05:38;;;;;;;4.00;2.85;;;14.00;99.90;;;;;;2079095;28;20039;-74
2023/09/26 00:06:38;;;;;;;3.28;2.75;;;13.90;99.90;;;;;;2076612;28;20040;-74
2023/09/26 00:07:40;;;;;;;2.88;2.33;;;14.00;99.90;;;;;;2075843;28;20017;-74
2023/09/26 00:08:40;;;;;;;4.55;2.70;;;14.00;99.90;;;;;;2077613;28;20586;-74
2023/09/26 00:09:41;;;;;;;4.18;2.80;;;13.90;99.90;;;;;;2078104;28;20026;-74
2023/09/26 00:10:42;;;;;;;3.83;2.55;;;14.00;99.90;;;;;;2078330;28;20057;-74
2023/09/26 00:11:42;;;;;;;3.40;2.42;;;13.90;99.90;;;;;;2078345;28;20037;-74
2023/09/26 00:12:43;;;;;;;2.60;2.40;;;13.90;99.90;;;;;;2077677;28;20037;-74
2023/09/26 00:13:43;;;;;;;3.00;2.60;;;13.90;99.90;;;;;;2077755;28;20037;-74
2023/09/26 00:14:44;;;;;;;3.25;2.50;;;13.90;99.90;;;;;;2069017;28;20084;-74
2023/09/26 00:15:45;;;;;;;3.72;2.65;;;13.90;99.90;;;;;;2069086;28;20068;-74
2023/09/26 00:16:45;;;;;;;4.95;2.75;;;13.90;99.90;;;;;;2059412;28;20526;-74
2023/09/26 00:17:46;;;;;;;2.78;2.42;;;13.90;99.90;;;;;;2065722;28;20030;-74
2023/09/26 00:18:46;;;;;;;4.57;2.95;;;13.90;99.90;;;;;;2068465;28;20029;-74
2023/09/26 00:19:47;;;;;;;3.75;2.53;;;13.90;99.90;;;;;;2067849;28;20034;-74
2023/09/26 00:20:48;;;;;;;3.08;2.30;;;13.90;99.90;;;;;;2076312;28;20202;-74
2023/09/26 00:21:49;;;;;;;3.10;2.53;;;13.90;99.90;;;;;;2077061;28;20025;-74
2023/09/26 00:22:50;;;;;;;3.80;2.65;;;13.90;99.90;;;;;;2076730;28;20472;-74
2023/09/26 00:23:51;;;;;;;3.38;2.70;;;13.90;99.90;;;;;;2076892;28;20427;-74
2023/09/26 00:24:52;;;;;;;3.17;2.42;;;13.90;99.90;;;;;;2075434;28;20026;-73
2023/09/26 00:25:53;;;;;;;3.58;2.20;;;13.90;99.90;;;;;;2077506;28;20025;-73
2023/09/26 00:26:53;;;;;;;3.72;2.80;;;13.90;99.90;;;;;;2075880;28;20032;-73
2023/09/26 00:27:54;;;;;;;3.75;2.15;;;13.90;99.90;;;;;;2076927;28;20041;-73
2023/09/26 00:28:54;;;;;;;2.95;2.70;;;13.90;99.90;;;;;;2078731;28;20032;-73
2023/09/26 00:29:55;;;;;;;4.32;2.70;;;13.90;99.90;;;;;;2078237;28;20053;-73
2023/09/26 00:30:56;;;;;;;3.08;2.42;;;13.80;99.90;;;;;;2076120;28;20029;-74
2023/09/26 00:31:58;;;;;;;3.38;2.25;;;13.80;99.90;;;;;;2068430;28;20421;-73
2023/09/26 00:32:59;;;;;;;3.70;2.95;;;13.90;99.90;;;;;;2068464;28;20475;-73
2023/09/26 00:33:59;;;;;;;4.28;2.53;;;13.90;99.90;;;;;;2077297;28;20029;-74
2023/09/26 00:35:01;;;;;;;3.92;3.08;;;13.90;99.90;;;;;;2076199;28;20033;-75
2023/09/26 00:36:09;;;;;;;3.15;2.60;;;13.80;99.90;;;;;;2077547;28;20048;-73
2023/09/26 00:37:10;;;;;;;3.45;2.67;;;13.80;99.90;;;;;;2075579;28;20026;-73
2023/09/26 00:38:11;;;;;;;4.03;2.78;;;13.80;99.90;;;;;;2069568;28;20026;-73
2023/09/26 00:39:12;;;;;;;3.45;2.78;;;13.80;99.90;;;;;;2070012;28;20019;-73
2023/09/26 00:40:18;;;;;;;2.78;2.50;;;13.80;99.90;;;;;;2076629;28;20077;-73
2023/09/26 00:41:19;;;;;;;2.72;2.20;;;13.80;99.90;;;;;;2075438;28;20674;-73
2023/09/26 00:42:19;;;;;;;3.20;2.90;;;13.80;99.90;;;;;;2078477;28;20491;-73
2023/09/26 00:43:21;;;;;;;3.13;2.63;;;13.80;99.90;;;;;;2075142;28;20022;-73
2023/09/26 00:44:22;;;;;;;6.20;2.83;;;13.80;99.90;;;;;;2071451;28;20037;-73
2023/09/26 00:45:22;;;;;;;3.10;2.45;;;13.80;99.90;;;;;;2070680;28;20117;-73
2023/09/26 00:46:23;;;;;;;2.75;2.55;;;13.70;99.90;;;;;;2076148;28;20051;-73
2023/09/26 00:47:24;;;;;;;6.85;2.70;;;13.70;99.90;;;;;;2077509;28;20029;-73
2023/09/26 00:48:25;;;;;;;4.97;3.00;;;13.70;99.90;;;;;;2074807;28;20080;-73
2023/09/26 00:49:28;;;;;;;5.90;2.70;;;13.70;99.90;;;;;;2075079;28;20473;-74
2023/09/26 00:50:29;;;;;;;3.85;2.80;;;13.80;99.90;;;;;;2077849;28;20029;-73
2023/09/26 00:51:31;;;;;;;2.90;2.60;;;13.70;99.90;;;;;;2076253;28;20654;-73
2023/09/26 00:52:33;;;;;;;4.68;2.70;;;13.70;99.90;;;;;;2071174;28;20113;-73
2023/09/26 00:53:40;;;;;;;2.97;2.42;;;13.70;99.90;;;;;;2069689;28;20025;-73
2023/09/26 00:54:41;;;;;;;2.65;2.45;;;13.70;99.90;;;;;;2078144;28;20037;-73
2023/09/26 00:55:44;;;;;;;3.33;2.20;;;13.70;99.90;;;;;;2076304;28;20026;-73
2023/09/26 00:56:45;;;;;;;5.47;2.78;;;13.70;99.90;;;;;;2076215;28;20524;-73
2023/09/26 00:57:46;;;;;;;3.45;2.50;;;13.70;99.90;;;;;;2076531;28;20423;-73
2023/09/26 00:58:47;;;;;;;3.08;2.53;;;13.60;99.90;;;;;;2077103;28;20601;-73
2023/09/26 00:59:47;;;;;;;4.47;2.78;;;13.70;99.90;;;;;;2069044;28;20032;-73
2023/09/26 01:00:53;;;;;;;2.85;2.50;;;13.70;99.90;;;;;;2069288;28;20053;-73
2023/09/26 01:01:55;;;;;;;7.60;2.65;;;13.70;99.90;;;;;;2073880;28;20385;-73
2023/09/26 01:02:57;;;;;;;2.65;2.42;;;13.60;99.90;;;;;;2076666;28;20042;-73
2023/09/26 01:03:59;;;;;;;3.95;2.42;;;13.60;99.90;;;;;;2077176;28;20132;-73
2023/09/26 01:04:59;;;;;;;4.30;2.85;;;13.60;99.90;;;;;;2076993;28;20029;-73
2023/09/26 01:06:02;;;;;;;3.53;3.22;;;13.60;99.90;;;;;;2075677;28;20072;-73
2023/09/26 01:07:02;;;;;;;3.08;2.40;;;13.60;99.90;;;;;;2076660;28;20014;-73
2023/09/26 01:08:07;;;;;;;2.85;2.63;;;13.60;99.90;;;;;;2077999;28;20037;-73
2023/09/26 01:09:10;;;;;;;4.00;2.95;;;13.60;99.90;;;;;;2076026;28;20605;-73
2023/09/26 01:10:10;;;;;;;3.22;2.67;;;13.50;99.90;;;;;;2074894;28;20029;-73
2023/09/26 01:11:11;;;;;;;3.47;2.80;;;13.50;99.90;;;;;;2077239;28;20056;-73
2023/09/26 01:12:12;;;;;;;4.05;2.90;;;13.50;99.90;;;;;;2069372;28;20177;-73
2023/09/26 01:13:13;;;;;;;4.63;3.17;;;13.50;99.90;;;;;;2067669;28;20562;-73
2023/09/26 01:14:13;;;;;;;3.95;2.97;;;13.50;99.90;;;;;;2076595;28;20026;-73
2023/09/26 01:15:36;;;;;;;3.17;2.58;;;13.50;99.90;;;;;;2077028;28;20025;-73
2023/09/26 01:16:38;;;;;;;4.72;2.90;;;13.50;99.90;;;;;;2075315;28;20028;-73
2023/09/26 01:17:39;;;;;;;2.75;2.55;;;13.40;99.90;;;;;;2076444;28;20029;-73
2023/09/26 01:18:39;;;;;;;4.65;3.20;;;13.40;99.90;;;;;;2076820;28;20032;-73
2023/09/26 01:19:40;;;;;;;6.10;2.80;;;13.40;99.90;;;;;;2078427;28;20028;-73
2023/09/26 01:20:44;;;;;;;3.38;3.08;;;13.40;99.90;;;;;;2076136;28;20026;-73
2023/09/26 01:21:44;;;;;;;2.92;2.42;;;13.40;99.90;;;;;;2077611;28;20055;-73
2023/09/26 01:22:46;;;;;;;2.92;2.30;;;13.50;99.90;;;;;;2075158;28;20033;-73
2023/09/26 01:23:55;;;;;;;3.00;2.70;;;13.40;99.90;;;;;;2076375;28;20033;-73
2023/09/26 01:24:56;;;;;;;3.97;3.13;;;13.40;99.90;;;;;;2075817;28;20030;-73
2023/09/26 01:25:57;;;;;;;2.97;2.72;;;13.40;99.90;;;;;;2077402;28;20029;-73
2023/09/26 01:26:57;;;;;;;3.95;3.10;;;13.40;99.90;;;;;;2076110;28;20037;-73
2023/09/26 01:28:01;;;;;;;3.58;2.70;;;13.40;99.90;;;;;;2076602;28;20081;-73
2023/09/26 01:29:03;;;;;;;4.55;3.05;;;13.30;99.90;;;;;;2077171;28;20671;-73
2023/09/26 01:30:04;;;;;;;3.22;2.92;;;13.30;99.90;;;;;;2077140;28;20041;-73
2023/09/26 01:31:04;;;;;;;2.95;2.75;;;13.30;99.90;;;;;;2075700;28;20622;-73
2023/09/26 01:32:05;;;;;;;2.90;2.70;;;13.30;99.90;;;;;;2076628;28;20146;-73
2023/09/26 01:33:16;;;;;;;3.13;2.80;;;13.30;99.90;;;;;;2077102;28;20030;-73
2023/09/26 01:34:17;;;;;;;3.33;3.03;;;13.30;99.90;;;;;;2075330;28;20339;-73
2023/09/26 01:35:18;;;;;;;3.40;2.72;;;13.30;99.90;;;;;;2068215;28;20060;-73
2023/09/26 01:36:19;;;;;;;2.97;2.67;;;13.30;99.90;;;;;;2067152;28;20104;-73
2023/09/26 01:37:20;;;;;;;7.10;2.90;;;13.30;99.90;;;;;;2070058;28;20079;-73
2023/09/26 01:38:23;;;;;;;3.30;2.88;;;13.30;99.90;;;;;;2065564;28;20170;-73
2023/09/26 01:39:23;;;;;;;16.20;3.42;;;13.30;99.90;;;;;;2076971;28;20035;-73
2023/09/26 01:40:24;;;;;;;3.50;3.15;;;13.30;99.90;;;;;;2076148;28;20032;-73
2023/09/26 01:41:28;;;;;;;4.15;2.85;;;13.30;99.90;;;;;;2066880;28;20523;-73
2023/09/26 01:42:28;;;;;;;4.13;2.83;;;13.30;99.90;;;;;;2067380;28;20120;-73
2023/09/26 01:43:29;;;;;;;2.75;2.50;;;13.20;99.90;;;;;;2075020;28;20037;-73
2023/09/26 01:44:29;;;;;;;3.75;2.78;;;13.20;99.90;;;;;;2078152;28;20025;-73
2023/09/26 01:45:30;;;;;;;3.10;2.72;;;13.20;99.90;;;;;;2077032;28;20107;-73
2023/09/26 01:46:31;;;;;;;3.05;2.65;;;13.20;99.90;;;;;;2077403;28;20573;-73
2023/09/26 01:47:42;;;;;;;3.30;2.58;;;13.20;99.90;;;;;;2075624;28;20488;-73
2023/09/26 01:48:42;;;;;;;2.92;2.72;;;13.20;99.90;;;;;;2075265;28;20030;-73
2023/09/26 01:49:43;;;;;;;2.92;2.60;;;13.20;99.90;;;;;;2076041;28;20041;-73
2023/09/26 01:50:44;;;;;;;4.38;2.60;;;13.20;99.90;;;;;;2068784;28;20041;-73
2023/09/26 01:51:44;;;;;;;3.00;2.45;;;13.10;99.90;;;;;;2066973;28;20038;-73
2023/09/26 01:52:45;;;;;;;3.47;2.80;;;13.10;99.90;;;;;;2077459;28;20389;-73
2023/09/26 01:53:46;;;;;;;4.10;3.05;;;13.10;99.90;;;;;;2077211;28;21473;-73
2023/09/26 01:54:47;;;;;;;3.60;2.65;;;13.10;99.90;;;;;;2077655;28;20698;-73
2023/09/26 01:55:47;;;;;;;3.08;2.65;;;13.10;99.90;;;;;;2077691;28;20034;-73
2023/09/26 01:56:48;;;;;;;5.20;2.90;;;13.10;99.90;;;;;;2073033;28;20139;-74
2023/09/26 01:57:49;;;;;;;3.00;2.70;;;13.10;99.90;;;;;;2073794;28;20029;-73
2023/09/26 01:58:50;;;;;;;3.72;3.20;;;13.10;99.90;;;;;;2078036;28;20048;-73
2023/09/26 01:59:51;;;;;;;3.15;2.70;;;13.00;99.90;;;;;;2076806;28;20025;-73
2023/09/26 02:00:51;;;;;;;3.47;2.80;;;13.00;99.90;;;;;;2078862;28;20048;-73
2023/09/26 02:01:54;;;;;;;2.88;2.58;;;13.00;99.90;;;;;;2075752;28;20065;-73
2023/09/26 02:02:55;;;;;;;3.22;2.92;;;13.00;99.90;;;;;;2067950;28;20025;-73
2023/09/26 02:03:56;;;;;;;4.07;2.65;;;13.00;99.90;;;;;;2067557;28;20133;-73
2023/09/26 02:04:56;;;;;;;3.42;2.70;;;13.00;99.90;;;;;;2077725;28;20036;-73
2023/09/26 02:05:58;;;;;;;3.33;2.95;;;13.00;99.90;;;;;;2079558;28;20601;-73
2023/09/26 02:06:59;;;;;;;4.80;2.83;;;13.00;99.90;;;;;;2077513;28;20025;-73
2023/09/26 02:07:59;;;;;;;3.33;2.90;;;13.00;99.90;;;;;;2078613;28;20025;-73
2023/09/26 02:09:00;;;;;;;8.60;2.90;;;13.00;99.90;;;;;;2078678;28;20021;-73
2023/09/26 02:10:03;;;;;;;3.53;2.60;;;12.90;99.90;;;;;;2076154;28;20056;-73
2023/09/26 02:11:04;;;;;;;4.22;2.70;;;12.90;99.90;;;;;;2077469;28;20433;-73
2023/09/26 02:12:07;;;;;;;4.65;2.40;;;12.90;99.90;;;;;;2078581;28;20158;-73
2023/09/26 02:13:08;;;;;;;2.72;2.50;;;12.90;99.90;;;;;;2068608;28;20448;-73
2023/09/26 02:14:09;;;;;;;3.00;2.70;;;12.90;99.90;;;;;;2068703;28;20599;-73
2023/09/26 02:15:11;;;;;;;3.65;3.00;;;12.90;99.90;;;;;;2077412;28;20022;-73
2023/09/26 02:16:12;;;;;;;3.78;2.83;;;12.90;99.90;;;;;;2076809;28;20026;-73
2023/09/26 02:17:13;;;;;;;2.78;2.50;;;12.90;99.90;;;;;;2078509;28;20071;-73
2023/09/26 02:18:13;;;;;;;4.20;3.00;;;12.90;99.90;;;;;;2076223;28;20033;-73
2023/09/26 02:19:14;;;;;;;3.53;2.35;;;12.90;99.90;;;;;;2079762;28;20013;-73
2023/09/26 02:20:16;;;;;;;3.90;2.92;;;12.80;99.90;;;;;;2075901;28;20485;-73
2023/09/26 02:21:17;;;;;;;2.88;2.67;;;12.90;99.90;;;;;;2077890;28;20191;-73
2023/09/26 02:22:18;;;;;;;3.22;2.92;;;12.90;99.90;;;;;;2078696;28;20155;-73
2023/09/26 02:23:19;;;;;;;3.30;2.67;;;12.80;99.90;;;;;;2078512;28;20100;-73
2023/09/26 02:24:19;;;;;;;3.42;2.70;;;12.80;99.90;;;;;;2079031;28;20025;-73
2023/09/26 02:25:20;;;;;;;3.38;3.08;;;12.80;99.90;;;;;;2078560;28;20039;-73
2023/09/26 02:26:21;;;;;;;3.38;2.90;;;12.80;99.90;;;;;;2078895;28;20430;-73
2023/09/26 02:27:21;;;;;;;4.72;3.22;;;12.80;99.90;;;;;;2078240;28;20374;-73
2023/09/26 02:28:22;;;;;;;4.30;2.53;;;12.80;99.90;;;;;;2076929;28;20026;-73
2023/09/26 02:29:23;;;;;;;2.85;2.60;;;12.80;99.90;;;;;;2077904;28;20029;-73
2023/09/26 02:30:26;;;;;;;2.80;2.47;;;12.80;99.90;;;;;;2077038;28;20036;-73
2023/09/26 02:31:27;;;;;;;2.85;2.55;;;12.80;99.90;;;;;;2077011;28;20029;-73
2023/09/26 02:32:27;;;;;;;3.72;2.75;;;12.70;99.90;;;;;;2076708;28;20037;-73
2023/09/26 02:33:28;;;;;;;4.07;2.85;;;12.70;99.90;;;;;;2077786;28;20022;-73
2023/09/26 02:34:29;;;;;;;3.35;2.92;;;12.70;99.90;;;;;;2077549;28;20034;-73
2023/09/26 02:35:30;;;;;;;3.20;2.72;;;12.70;99.90;;;;;;2078240;28;20028;-73
2023/09/26 02:36:30;;;;;;;3.13;2.83;;;12.70;99.90;;;;;;2077616;28;20029;-73
2023/09/26 02:37:31;;;;;;;3.97;3.20;;;12.70;99.90;;;;;;2076867;28;20034;-73
2023/09/26 02:38:31;;;;;;;3.17;2.90;;;12.70;99.90;;;;;;2077617;28;20386;-73
2023/09/26 02:39:32;;;;;;;5.22;2.90;;;12.70;99.90;;;;;;2078378;28;20032;-73
2023/09/26 02:40:32;;;;;;;4.93;3.10;;;12.70;99.90;;;;;;2077170;28;20083;-73
2023/09/26 02:41:33;;;;;;;3.00;2.70;;;12.70;99.90;;;;;;2066976;28;20026;-73
2023/09/26 02:42:33;;;;;;;3.30;3.00;;;12.70;99.90;;;;;;2067400;28;20034;-73
2023/09/26 02:43:34;;;;;;;3.38;3.03;;;12.60;99.90;;;;;;2068272;28;20077;-73
2023/09/26 02:44:34;;;;;;;3.92;2.83;;;12.70;99.90;;;;;;2071253;28;20030;-73
2023/09/26 02:45:35;;;;;;;2.92;2.50;;;12.60;99.90;;;;;;2070242;28;20030;-74
2023/09/26 02:46:36;;;;;;;3.80;2.78;;;12.60;99.90;;;;;;2069706;28;20117;-74
2023/09/26 02:47:37;;;;;;;3.72;3.22;;;12.60;99.90;;;;;;2077601;28;20128;-74
2023/09/26 02:48:37;;;;;;;3.30;2.97;;;12.60;99.90;;;;;;2076819;28;20108;-73
2023/09/26 02:49:38;;;;;;;3.65;3.25;;;12.60;99.90;;;;;;2077108;28;20044;-74
2023/09/26 02:50:38;;;;;;;4.53;3.40;;;12.60;99.90;;;;;;2077936;28;20073;-74
2023/09/26 02:51:39;;;;;;;4.10;3.70;;;12.60;99.90;;;;;;2078340;28;20423;-74
2023/09/26 02:52:43;;;;;;;4.75;3.55;;;12.60;99.90;;;;;;2078160;28;21836;-74
2023/09/26 02:53:43;;;;;;;4.20;3.80;;;12.50;99.90;;;;;;2078664;28;20075;-74
2023/09/26 02:54:44;;;;;;;5.10;4.13;;;12.50;99.90;;;;;;2077711;28;20053;-74
2023/09/26 02:55:44;;;;;;;4.80;4.22;;;12.50;99.90;;;;;;2077412;28;20017;-74
2023/09/26 02:56:45;;;;;;;5.10;4.60;;;12.50;99.90;;;;;;2076084;28;20025;-74
2023/09/26 02:57:46;;;;;;;5.07;4.45;;;12.50;99.90;;;;;;2069726;28;20396;-74
2023/09/26 02:58:46;;;;;;;5.75;4.65;;;12.50;99.90;;;;;;2069320;28;20813;-74
2023/09/26 02:59:48;;;;;;;4.60;4.20;;;12.50;99.90;;;;;;2077814;28;20102;-74
2023/09/26 03:00:50;;;;;;;5.25;4.63;;;12.50;99.90;;;;;;2078351;28;20030;-74
2023/09/26 03:01:51;;;;;;;5.63;5.13;;;12.50;99.90;;;;;;2078065;28;20025;-74
2023/09/26 06:54:34;;;;;;;13.02;8.00;;;12.70;99.90;;;;;;2067663;28;20025;-72
2023/09/26 06:55:49;;;;;;;11.67;7.66;;;12.70;99.90;;;;;;1692842;28;10001213;-72
2023/09/26 06:56:51;;;;;;;11.02;7.20;;;12.90;99.90;;;;;;2071154;28;20026;-72
2023/09/26 06:57:51;;;;;;;7.65;6.85;;;13.00;99.90;;;;;;2079598;28;20439;-72
2023/09/26 06:58:52;;;;;;;9.93;7.15;;;13.00;99.90;;;;;;2070337;28;20073;-72
2023/09/26 06:59:52;;;;;;;11.52;7.20;;;13.10;99.90;;;;;;2073629;28;20057;-72
2023/09/26 07:00:53;;;;;;;12.00;8.18;;;13.20;99.90;;;;;;2076721;28;20043;-72
2023/09/26 07:01:54;;;;;;;11.15;6.88;;;13.30;99.90;;;;;;2077429;28;20033;-72
2023/09/26 07:02:55;;;;;;;9.63;6.60;;;13.30;99.90;;;;;;2077091;28;20121;-72
2023/09/26 07:03:55;;;;;;;9.02;7.00;;;13.40;99.90;;;;;;2079224;28;20033;-72
2023/09/26 07:04:56;;;;;;;9.20;7.05;;;13.50;99.90;;;;;;2076874;28;20041;-72
2023/09/26 07:05:57;;;;;;;10.43;7.28;;;13.50;99.90;;;;;;2078759;28;20551;-72
2023/09/26 07:06:59;;;;;;;10.90;6.70;;;13.60;99.90;;;;;;2077455;28;20030;-72
2023/09/26 07:07:59;;;;;;;8.65;7.10;;;13.70;99.90;;;;;;2078281;28;20021;-72
2023/09/26 07:09:00;;;;;;;8.75;6.85;;;13.70;99.90;;;;;;2078720;28;20028;-72
2023/09/26 07:10:02;;;;;;;7.07;6.38;;;13.80;99.90;;;;;;2078557;28;20036;-72
2023/09/26 07:11:03;;;;;;;11.07;6.57;;;13.90;99.90;;;;;;2079183;28;20103;-72
2023/09/26 07:12:05;;;;;;;10.30;7.07;;;13.90;99.90;;;;;;2068590;28;20084;-72
2023/09/26 07:13:06;;;;;;;10.02;6.35;;;14.00;99.90;;;;;;2068172;28;20014;-72
2023/09/26 07:14:07;;;;;;;9.75;6.93;;;14.10;99.90;;;;;;2077790;28;20025;-72
2023/09/26 07:15:10;;;;;;;7.90;6.60;;;14.20;99.90;;;;;;2069101;28;20021;-72
2023/09/26 07:16:10;;;;;;;9.77;6.45;;;14.20;99.90;;;;;;2069490;28;20114;-72
2023/09/26 07:17:11;;;;;;;8.63;6.55;;;14.30;99.90;;;;;;2075969;28;20025;-72
2023/09/26 07:18:12;;;;;;;9.40;6.47;;;14.30;99.90;;;;;;2074955;28;20034;-72
2023/09/26 07:19:13;;;;;;;8.55;5.43;;;14.40;99.90;;;;;;2077166;28;20065;-72
2023/09/26 07:20:13;;;;;;;8.73;6.15;;;14.50;99.90;;;;;;2078190;28;20017;-72
2023/09/26 07:21:14;;;;;;;7.30;5.95;;;14.50;99.90;;;;;;2076148;28;20033;-72
2023/09/26 07:22:15;;;;;;;11.15;6.72;;;14.60;99.90;;;;;;2077179;28;20444;-72
2023/09/26 07:23:15;;;;;;;8.23;6.40;;;14.70;99.90;;;;;;2069199;28;20125;-72
2023/09/26 07:26:33;;;;;;;8.30;5.60;;;14.80;99.90;;;;;;2070355;28;19925;-71
2023/09/26 07:27:34;;;;;;;12.48;6.05;;;14.90;99.90;;;;;;2068411;28;20025;-71
2023/09/26 07:28:35;;;;;;;5.72;5.22;;;15.00;99.90;;;;;;1193628;28;10000865;-71
2023/09/26 07:29:35;;;;;;;7.38;5.68;;;15.10;99.90;;;;;;2074868;28;20076;-71
2023/09/26 07:30:36;;;;;;;10.90;5.50;;;15.20;99.90;;;;;;2077467;28;20095;-71
2023/09/26 07:31:36;;;;;;;8.02;4.90;;;15.20;99.90;;;;;;2075989;28;20111;-71
2023/09/26 07:32:37;;;;;;;8.68;4.90;;;15.30;99.90;;;;;;2077047;28;20057;-71
2023/09/26 07:33:41;;;;;;;5.85;4.93;;;15.40;99.90;;;;;;2076906;28;20028;-71
2023/09/26 07:34:41;;;;;;;9.77;4.60;;;15.50;99.90;;;;;;2075806;28;20140;-71
2023/09/26 07:35:42;;;;;;;8.63;4.60;;;15.50;99.90;;;;;;2076779;28;20061;-71
2023/09/26 07:36:43;;;;;;;8.68;4.68;;;15.60;99.90;;;;;;2075591;28;20091;-71
2023/09/26 07:37:43;;;;;;;10.82;5.07;;;15.70;99.90;;;;;;2075894;28;20108;-71
2023/09/26 07:38:44;;;;;;;6.25;4.65;;;15.70;99.90;;;;;;2076374;28;20033;-71
2023/09/26 07:39:49;;;;;;;7.60;5.07;;;15.80;99.90;;;;;;2076668;28;20103;-71
2023/09/26 07:40:49;;;;;;;10.10;4.85;;;15.90;99.90;;;;;;2075640;28;20026;-71
2023/09/26 07:41:50;;;;;;;7.90;4.80;;;16.00;99.90;;;;;;2075863;28;20033;-71
2023/09/26 07:42:50;;;;;;;5.20;4.55;;;16.10;99.90;;;;;;2066889;28;20504;-71
2023/09/26 07:43:51;;;;;;;6.03;4.20;;;16.10;99.90;;;;;;2068139;28;20057;-71
2023/09/26 07:44:55;;;;;;;6.22;3.92;;;16.20;99.90;;;;;;2075496;28;20022;-71
2023/09/26 07:45:57;;;;;;;8.75;4.35;;;16.30;99.90;;;;;;2077737;28;20041;-71
2023/09/26 07:46:58;;;;;;;4.90;3.95;;;16.40;99.90;;;;;;2075628;28;20033;-72
2023/09/26 07:47:58;;;;;;;7.97;4.45;;;16.40;99.90;;;;;;2075937;28;20108;-71
2023/09/26 07:48:59;;;;;;;6.07;4.50;;;16.50;99.90;;;;;;2076324;28;20076;-71
2023/09/26 07:50:01;;;;;;;7.03;3.95;;;16.60;99.90;;;;;;2077298;28;20029;-71
2023/09/26 07:51:06;;;;;;;5.65;3.60;;;16.70;99.90;;;;;;2076700;28;20534;-72
2023/09/26 07:52:07;;;;;;;6.55;4.20;;;16.80;99.90;;;;;;2077500;28;20033;-72
2023/09/26 07:53:09;;;;;;;4.90;4.05;;;16.90;99.90;;;;;;2076306;28;20484;-72
2023/09/26 07:54:10;;;;;;;8.05;3.70;;;17.00;99.90;;;;;;2075693;28;20021;-72
2023/09/26 07:55:12;;;;;;;4.50;3.78;;;17.10;99.90;;;;;;2078037;28;20030;-72
2023/09/26 07:56:13;;;;;;;5.85;4.20;;;17.20;99.90;;;;;;2068355;28;20053;-72
2023/09/26 07:57:14;;;;;;;7.75;4.13;;;17.20;99.90;;;;;;2069007;28;20034;-72
2023/09/26 07:58:15;;;;;;;5.20;3.30;;;17.30;99.90;;;;;;2076995;28;20025;-72
2023/09/26 07:59:16;;;;;;;5.35;3.42;;;17.50;99.90;;;;;;2076058;28;20502;-72
2023/09/26 08:00:17;;;;;;;8.45;3.83;;;17.60;99.90;;;;;;2076286;28;20948;-72
2023/09/26 08:01:18;;;;;;;4.90;3.38;;;17.70;99.90;;;;;;2077191;28;22001;-72
2023/09/26 08:02:18;;;;;;;5.22;3.83;;;17.70;99.90;;;;;;2077842;28;20496;-72
2023/09/26 08:03:19;;;;;;;6.22;3.58;;;17.80;99.90;;;;;;2075724;28;20034;-72
2023/09/26 08:04:19;;;;;;;4.78;3.53;;;17.90;99.90;;;;;;2076018;28;20029;-72
2023/09/26 08:05:20;;;;;;;8.88;3.15;;;18.00;99.90;;;;;;2076809;28;20022;-72
2023/09/26 08:06:20;;;;;;;5.43;3.60;;;18.10;99.90;;;;;;2066592;28;20324;-72
2023/09/26 08:07:21;;;;;;;14.02;4.25;;;18.20;99.90;;;;;;2068283;28;20026;-72
2023/09/26 08:08:22;;;;;;;4.80;3.30;;;18.30;99.90;;;;;;2075707;28;20024;-72
2023/09/26 08:09:22;;;;;;;5.18;3.50;;;18.40;99.90;;;;;;2066151;28;20022;-72
2023/09/26 08:10:23;;;;;;;6.30;3.28;;;18.50;99.90;;;;;;2068257;28;20050;-72
2023/09/26 08:11:27;;;;;;;6.40;3.63;;;18.60;99.90;;;;;;2076474;28;20026;-72
2023/09/26 08:12:29;;;;;;;5.75;3.22;;;18.70;99.90;;;;;;2076869;28;20029;-72
2023/09/26 08:13:30;;;;;;;6.15;4.00;;;18.70;99.90;;;;;;2077781;28;20018;-72
2023/09/26 08:14:30;;;;;;;5.70;3.03;;;18.80;99.90;;;;;;2076602;28;20021;-72
2023/09/26 08:15:31;;;;;;;6.45;3.58;;;18.90;99.90;;;;;;2076648;28;20053;-72
2023/09/26 08:16:32;;;;;;;6.25;3.20;;;19.00;99.90;;;;;;2075461;28;20030;-72
2023/09/26 08:17:33;;;;;;;6.25;3.45;;;19.10;99.90;;;;;;2068133;28;20057;-72
2023/09/26 08:18:33;;;;;;;11.30;2.88;;;19.20;99.90;;;;;;2068290;28;20417;-72
2023/09/26 08:19:34;;;;;;;5.15;3.33;;;19.30;99.90;;;;;;2075716;28;20112;-72
2023/09/26 08:20:35;;;;;;;6.53;3.45;;;19.30;99.90;;;;;;2077366;28;20617;-72
2023/09/26 08:21:35;;;;;;;9.10;3.28;;;19.40;99.90;;;;;;2068010;28;20074;-72
2023/09/26 08:22:36;;;;;;;7.35;3.42;;;19.50;99.90;;;;;;2068530;28;20105;-72
2023/09/26 08:23:37;;;;;;;3.97;2.90;;;19.60;99.90;;;;;;2077108;28;20373;-72
2023/09/26 08:24:37;;;;;;;5.25;2.92;;;19.70;99.90;;;;;;2076342;28;20026;-72
2023/09/26 08:25:38;;;;;;;5.53;2.95;;;19.80;99.90;;;;;;2075405;28;20821;-71
2023/09/26 08:26:39;;;;;;;5.60;2.97;;;19.90;99.90;;;;;;2078138;28;20040;-71
2023/09/26 08:27:40;;;;;;;7.35;3.00;;;20.00;99.90;;;;;;2077429;28;20057;-71
2023/09/26 08:28:41;;;;;;;3.58;2.70;;;20.00;99.90;;;;;;2076809;28;20021;-71
2023/09/26 08:29:41;;;;;;;6.55;2.95;;;20.10;99.90;;;;;;2075407;28;20200;-72
2023/09/26 08:30:42;;;;;;;7.78;3.08;;;20.20;99.90;;;;;;2076177;28;20056;-71
2023/09/26 08:31:42;;;;;;;4.80;2.90;;;20.30;99.90;;;;;;2076289;28;20075;-71
2023/09/26 08:32:43;;;;;;;5.15;2.80;;;20.40;99.90;;;;;;2076179;28;20518;-71
2023/09/26 08:33:44;;;;;;;4.68;3.03;;;20.50;99.90;;;;;;2074479;28;20483;-71
2023/09/26 08:34:44;;;;;;;6.32;2.50;;;20.50;99.90;;;;;;2076461;28;20152;-71
2023/09/26 08:35:45;;;;;;;3.42;2.58;;;20.60;99.90;;;;;;2076488;28;20018;-71
2023/09/26 08:36:46;;;;;;;9.00;2.92;;;20.70;99.90;;;;;;2074711;28;20033;-71
2023/09/26 08:37:47;;;;;;;3.92;2.25;;;20.80;99.90;;;;;;2070349;28;20492;-71
2023/09/26 08:38:50;;;;;;;3.33;2.22;;;20.80;99.90;;;;;;2061375;28;20350;-71
2023/09/26 08:39:51;;;;;;;4.78;2.42;;;20.90;99.90;;;;;;2068634;28;20026;-71
2023/09/26 08:40:52;;;;;;;2.60;2.28;;;21.00;99.90;;;;;;2077011;28;20053;-71
2023/09/26 08:41:53;;;;;;;2.83;2.10;;;21.10;99.90;;;;;;2073898;28;20640;-72
2023/09/26 08:42:57;;;;;;;6.70;2.65;;;21.10;99.90;;;;;;2073893;28;20084;-72
2023/09/26 08:43:58;;;;;;;3.03;2.25;;;21.10;99.90;;;;;;2065390;28;20037;-72
2023/09/26 08:45:00;;;;;;;4.20;2.45;;;21.20;99.90;;;;;;2066297;28;21661;-72
2023/09/26 08:46:02;;;;;;;8.50;2.83;;;21.20;99.90;;;;;;2075695;28;20036;-72
2023/09/26 08:47:02;;;;;;;3.38;2.50;;;21.30;99.90;;;;;;2076111;28;20033;-72
2023/09/26 08:48:03;;;;;;;3.22;1.92;;;21.30;99.90;;;;;;2075627;28;20029;-72
2023/09/26 08:49:05;;;;;;;9.00;2.58;;;21.30;99.90;;;;;;2076239;28;20034;-72
2023/09/26 08:50:06;;;;;;;2.80;2.47;;;21.40;99.90;;;;;;2066802;28;20069;-72
2023/09/26 08:51:07;;;;;;;5.22;2.30;;;21.40;99.90;;;;;;2066720;28;20037;-71
2023/09/26 08:52:08;;;;;;;6.40;2.60;;;21.50;99.90;;;;;;2075110;28;20029;-71
2023/09/26 08:53:08;;;;;;;3.33;2.15;;;21.50;99.90;;;;;;2076592;28;20701;-71
2023/09/26 08:54:09;;;;;;;3.58;2.00;;;21.60;99.90;;;;;;2075045;28;20034;-71
2023/09/26 08:55:10;;;;;;;4.40;2.53;;;21.70;99.90;;;;;;2076610;28;20037;-71
2023/09/26 08:56:11;;;;;;;5.63;2.45;;;21.70;99.90;;;;;;2067018;28;20033;-72
2023/09/26 08:57:12;;;;;;;4.10;2.08;;;21.80;99.90;;;;;;2068720;28;20128;-72
2023/09/26 08:58:15;;;;;;;3.10;1.90;;;21.80;99.90;;;;;;2075420;28;20108;-72
2023/09/26 08:59:18;;;;;;;2.30;2.03;;;21.90;99.90;;;;;;2075878;28;20030;-72
2023/09/26 09:00:20;;;;;;;3.00;2.22;;;21.90;99.90;;;;;;2075852;28;20026;-72
2023/09/26 09:01:21;;;;;;;2.95;1.90;;;22.00;99.90;;;;;;2075328;28;20049;-72
2023/09/26 09:02:22;;;;;;;5.10;2.42;;;22.00;99.90;;;;;;2076226;28;20399;-72
2023/09/26 09:03:23;;;;;;;2.42;1.83;;;22.10;99.90;;;;;;2075796;28;20037;-72
2023/09/26 09:04:23;;;;;;;7.72;2.28;;;22.10;99.90;;;;;;2077800;28;20026;-72
2023/09/26 09:05:24;;;;;;;2.58;1.92;;;22.20;99.90;;;;;;2077927;28;20036;-72
2023/09/26 09:06:25;;;;;;;3.75;1.60;;;22.30;99.90;;;;;;2079362;28;20030;-72
2023/09/26 09:07:26;;;;;;;3.72;1.98;;;22.30;99.90;;;;;;2077060;28;20030;-72
2023/09/26 09:08:26;;;;;;;5.60;2.00;;;22.40;99.90;;;;;;2071320;28;20030;-72
2023/09/26 09:09:27;;;;;;;4.30;2.22;;;22.50;99.90;;;;;;2069056;28;20096;-72
2023/09/26 09:10:27;;;;;;;5.65;2.42;;;22.50;99.90;;;;;;2078185;28;20041;-72
2023/09/26 09:11:32;;;;;;;2.63;1.85;;;22.60;99.90;;;;;;2078613;28;20468;-72
2023/09/26 09:12:37;;;;;;;3.17;2.10;;;22.60;99.90;;;;;;2077617;28;20575;-72